sensor_id;sensor_type;location;lat;lon;timestamp;pressure;altitude;pressure_sealevel;temperature;humidity
72721;BME280;60835;50.974;10.322;2023-04-25T00:01:49;96875.72;;;7.38;100.00
72721;BME280;60835;50.974;10.322;2023-04-25T00:04:15;96871.94;;;7.32;100.00
72721;BME280;60835;50.974;10.322;2023-04-25T00:06:42;96885.06;;;7.40;100.00
72721;BME280;60835;50.974;10.322;2023-04-25T00:09:08;96885.41;;;7.37;100.00
72721;BME280;60835;50.974;10.322;2023-04-25T00:11:36;96868.16;;;7.34;100.00
72721;BME280;60835;50.974;10.322;2023-04-25T00:14:05;96858.28;;;7.36;100.00
72721;BME280;60835;50.974;10.322;2023-04-25T00:16:33;96864.72;;;7.26;100.00
72721;BME280;60835;50.974;10.322;2023-04-25T00:19:01;96837.78;;;7.24;100.00
72721;BME280;60835;50.974;10.322;2023-04-25T00:21:28;96824.81;;;7.22;100.00
72721;BME280;60835;50.974;10.322;2023-04-25T00:23:55;96783.78;;;7.13;100.00
72721;BME280;60835;50.974;10.322;2023-04-25T00:26:21;96760.56;;;6.86;100.00
72721;BME280;60835;50.974;10.322;2023-04-25T00:28:48;96712.97;;;6.81;100.00
72721;BME280;60835;50.974;10.322;2023-04-25T00:31:14;96689.25;;;6.89;100.00
72721;BME280;60835;50.974;10.322;2023-04-25T00:33:41;96694.13;;;6.78;100.00
72721;BME280;60835;50.974;10.322;2023-04-25T00:36:07;96666.00;;;6.78;100.00
72721;BME280;60835;50.974;10.322;2023-04-25T00:38:34;96673.19;;;6.84;100.00
72721;BME280;60835;50.974;10.322;2023-04-25T00:41:01;96688.91;;;6.92;100.00
72721;BME280;60835;50.974;10.322;2023-04-25T00:43:27;96682.44;;;6.80;100.00
72721;BME280;60835;50.974;10.322;2023-04-25T00:45:54;96672.06;;;6.79;100.00
72721;BME280;60835;50.974;10.322;2023-04-25T00:48:22;96684.13;;;6.65;100.00
72721;BME280;60835;50.974;10.322;2023-04-25T00:50:53;96665.78;;;6.57;100.00
72721;BME280;60835;50.974;10.322;2023-04-25T00:53:22;96665.06;;;6.71;100.00
72721;BME280;60835;50.974;10.322;2023-04-25T00:55:49;96673.19;;;6.61;100.00
72721;BME280;60835;50.974;10.322;2023-04-25T00:58:17;96664.44;;;6.69;100.00
72721;BME280;60835;50.974;10.322;2023-04-25T01:00:45;96655.28;;;6.57;100.00
72721;BME280;60835;50.974;10.322;2023-04-25T01:03:13;96637.19;;;6.62;100.00
72721;BME280;60835;50.974;10.322;2023-04-25T01:05:40;96640.22;;;6.51;100.00
72721;BME280;60835;50.974;10.322;2023-04-25T01:08:07;96625.41;;;6.58;100.00
72721;BME280;60835;50.974;10.322;2023-04-25T01:10:34;96641.50;;;6.55;100.00
72721;BME280;60835;50.974;10.322;2023-04-25T01:13:00;96628.31;;;6.40;100.00
72721;BME280;60835;50.974;10.322;2023-04-25T01:15:27;96622.88;;;6.42;100.00
72721;BME280;60835;50.974;10.322;2023-04-25T01:17:54;96612.66;;;6.47;100.00
72721;BME280;60835;50.974;10.322;2023-04-25T01:20:22;96616.03;;;6.33;100.00
72721;BME280;60835;50.974;10.322;2023-04-25T01:22:53;96611.25;;;6.36;100.00
72721;BME280;60835;50.974;10.322;2023-04-25T01:25:21;96598.25;;;6.43;100.00
72721;BME280;60835;50.974;10.322;2023-04-25T01:27:48;96607.00;;;6.35;100.00
72721;BME280;60835;50.974;10.322;2023-04-25T01:30:14;96613.22;;;6.34;100.00
72721;BME280;60835;50.974;10.322;2023-04-25T01:32:41;96601.00;;;6.19;100.00
72721;BME280;60835;50.974;10.322;2023-04-25T01:35:09;96600.34;;;6.17;100.00
72721;BME280;60835;50.974;10.322;2023-04-25T01:37:39;96596.72;;;6.18;100.00
72721;BME280;60835;50.974;10.322;2023-04-25T01:40:06;96593.47;;;6.16;100.00
72721;BME280;60835;50.974;10.322;2023-04-25T01:42:33;96604.19;;;6.06;100.00
72721;BME280;60835;50.974;10.322;2023-04-25T01:45:00;96605.19;;;5.97;100.00
72721;BME280;60835;50.974;10.322;2023-04-25T01:47:27;96599.75;;;5.98;100.00
72721;BME280;60835;50.974;10.322;2023-04-25T01:49:56;96615.19;;;5.93;100.00
72721;BME280;60835;50.974;10.322;2023-04-25T01:52:23;96613.25;;;5.95;100.00
72721;BME280;60835;50.974;10.322;2023-04-25T01:54:49;96610.13;;;5.84;100.00
72721;BME280;60835;50.974;10.322;2023-04-25T01:57:16;96614.56;;;5.83;100.00
72721;BME280;60835;50.974;10.322;2023-04-25T01:59:43;96621.16;;;5.87;100.00
72721;BME280;60835;50.974;10.322;2023-04-25T02:02:09;96623.09;;;5.85;100.00
72721;BME280;60835;50.974;10.322;2023-04-25T02:04:36;96608.47;;;5.91;100.00
72721;BME280;60835;50.974;10.322;2023-04-25T02:07:03;96603.72;;;5.94;100.00
72721;BME280;60835;50.974;10.322;2023-04-25T02:09:29;96610.63;;;5.95;100.00
72721;BME280;60835;50.974;10.322;2023-04-25T02:11:56;96613.25;;;5.95;100.00
72721;BME280;60835;50.974;10.322;2023-04-25T02:14:22;96601.72;;;6.04;100.00
72721;BME280;60835;50.974;10.322;2023-04-25T02:16:48;96610.25;;;5.98;100.00
72721;BME280;60835;50.974;10.322;2023-04-25T02:19:15;96623.03;;;6.01;100.00
72721;BME280;60835;50.974;10.322;2023-04-25T02:21:42;96612.56;;;5.93;100.00
72721;BME280;60835;50.974;10.322;2023-04-25T02:24:08;96615.91;;;5.87;100.00
72721;BME280;60835;50.974;10.322;2023-04-25T02:26:35;96610.66;;;5.87;100.00
72721;BME280;60835;50.974;10.322;2023-04-25T02:29:01;96602.09;;;5.77;100.00
72721;BME280;60835;50.974;10.322;2023-04-25T02:31:28;96611.78;;;5.77;100.00
72721;BME280;60835;50.974;10.322;2023-04-25T02:33:54;96615.22;;;5.77;100.00
72721;BME280;60835;50.974;10.322;2023-04-25T02:36:21;96608.69;;;5.73;100.00
72721;BME280;60835;50.974;10.322;2023-04-25T02:38:47;96612.25;;;5.80;100.00
72721;BME280;60835;50.974;10.322;2023-04-25T02:41:13;96600.16;;;5.87;100.00
72721;BME280;60835;50.974;10.322;2023-04-25T02:43:40;96605.88;;;5.75;100.00
72721;BME280;60835;50.974;10.322;2023-04-25T02:46:06;96604.28;;;5.58;100.00
72721;BME280;60835;50.974;10.322;2023-04-25T02:48:33;96590.53;;;5.56;100.00
72721;BME280;60835;50.974;10.322;2023-04-25T02:51:00;96599.56;;;5.53;100.00
72721;BME280;60835;50.974;10.322;2023-04-25T02:53:26;96593.88;;;5.17;100.00
72721;BME280;60835;50.974;10.322;2023-04-25T02:55:52;96606.16;;;5.17;100.00
72721;BME280;60835;50.974;10.322;2023-04-25T02:58:19;96616.81;;;5.23;100.00
72721;BME280;60835;50.974;10.322;2023-04-25T03:00:45;96629.75;;;5.17;100.00
72721;BME280;60835;50.974;10.322;2023-04-25T03:03:12;96663.47;;;5.04;100.00
72721;BME280;60835;50.974;10.322;2023-04-25T03:05:40;96708.69;;;4.89;100.00
72721;BME280;60835;50.974;10.322;2023-04-25T03:08:06;96737.81;;;4.86;100.00
72721;BME280;60835;50.974;10.322;2023-04-25T03:10:33;96734.59;;;5.17;100.00
72721;BME280;60835;50.974;10.322;2023-04-25T03:12:59;96717.25;;;5.32;100.00
72721;BME280;60835;50.974;10.322;2023-04-25T03:15:25;96701.53;;;5.24;100.00
72721;BME280;60835;50.974;10.322;2023-04-25T03:17:52;96683.00;;;5.41;100.00
72721;BME280;60835;50.974;10.322;2023-04-25T03:20:19;96646.28;;;5.49;100.00
72721;BME280;60835;50.974;10.322;2023-04-25T03:22:45;96607.44;;;5.53;100.00
72721;BME280;60835;50.974;10.322;2023-04-25T03:25:12;96607.44;;;5.45;100.00
72721;BME280;60835;50.974;10.322;2023-04-25T03:27:38;96596.94;;;5.53;100.00
72721;BME280;60835;50.974;10.322;2023-04-25T03:30:05;96598.56;;;5.54;100.00
72721;BME280;60835;50.974;10.322;2023-04-25T03:32:32;96581.31;;;5.68;100.00
72721;BME280;60835;50.974;10.322;2023-04-25T03:34:59;96588.06;;;5.62;100.00
72721;BME280;60835;50.974;10.322;2023-04-25T03:37:25;96593.59;;;5.67;100.00
72721;BME280;60835;50.974;10.322;2023-04-25T03:39:52;96591.28;;;5.72;100.00
72721;BME280;60835;50.974;10.322;2023-04-25T03:42:18;96596.91;;;5.69;100.00
72721;BME280;60835;50.974;10.322;2023-04-25T03:44:48;96594.09;;;5.71;100.00
72721;BME280;60835;50.974;10.322;2023-04-25T03:47:15;96593.81;;;5.58;100.00
72721;BME280;60835;50.974;10.322;2023-04-25T03:49:41;96591.69;;;5.53;100.00
72721;BME280;60835;50.974;10.322;2023-04-25T03:52:08;96596.59;;;5.56;100.00
72721;BME280;60835;50.974;10.322;2023-04-25T03:54:34;96589.06;;;5.61;100.00
72721;BME280;60835;50.974;10.322;2023-04-25T03:57:01;96593.47;;;5.61;100.00
72721;BME280;60835;50.974;10.322;2023-04-25T03:59:27;96597.91;;;5.60;100.00
72721;BME280;60835;50.974;10.322;2023-04-25T04:01:54;96599.88;;;5.58;100.00
72721;BME280;60835;50.974;10.322;2023-04-25T04:04:20;96601.19;;;5.54;100.00
72721;BME280;60835;50.974;10.322;2023-04-25T04:06:47;96597.72;;;5.53;100.00
72721;BME280;60835;50.974;10.322;2023-04-25T04:09:14;96594.78;;;5.57;100.00
72721;BME280;60835;50.974;10.322;2023-04-25T04:11:41;96599.25;;;5.48;100.00
72721;BME280;60835;50.974;10.322;2023-04-25T04:14:08;96600.88;;;5.49;100.00
72721;BME280;60835;50.974;10.322;2023-04-25T04:16:36;96604.50;;;5.48;100.00
72721;BME280;60835;50.974;10.322;2023-04-25T04:19:02;96601.53;;;5.43;100.00
72721;BME280;60835;50.974;10.322;2023-04-25T04:21:29;96598.47;;;5.15;100.00
72721;BME280;60835;50.974;10.322;2023-04-25T04:23:56;96593.03;;;5.17;100.00
72721;BME280;60835;50.974;10.322;2023-04-25T04:26:23;96597.50;;;5.16;100.00
72721;BME280;60835;50.974;10.322;2023-04-25T04:28:50;96593.03;;;5.25;100.00
72721;BME280;60835;50.974;10.322;2023-04-25T04:31:18;96594.66;;;5.42;100.00
72721;BME280;60835;50.974;10.322;2023-04-25T04:33:45;96601.53;;;5.43;100.00
72721;BME280;60835;50.974;10.322;2023-04-25T04:36:12;96597.91;;;5.52;100.00
72721;BME280;60835;50.974;10.322;2023-04-25T04:38:39;96606.28;;;5.56;100.00
72721;BME280;60835;50.974;10.322;2023-04-25T04:41:07;96616.59;;;5.57;100.00
72721;BME280;60835;50.974;10.322;2023-04-25T04:43:33;96618.25;;;5.50;100.00
72721;BME280;60835;50.974;10.322;2023-04-25T04:46:00;96626.75;;;5.52;100.00
72721;BME280;60835;50.974;10.322;2023-04-25T04:48:27;96637.56;;;5.57;100.00
72721;BME280;60835;50.974;10.322;2023-04-25T04:50:58;96621.84;;;5.49;100.00
72721;BME280;60835;50.974;10.322;2023-04-25T04:53:25;96645.44;;;5.57;100.00
72721;BME280;60835;50.974;10.322;2023-04-25T04:55:51;96643.97;;;5.63;100.00
72721;BME280;60835;50.974;10.322;2023-04-25T04:58:18;96649.53;;;5.68;100.00
72721;BME280;60835;50.974;10.322;2023-04-25T05:00:44;96647.06;;;5.74;100.00
72721;BME280;60835;50.974;10.322;2023-04-25T05:03:11;96656.41;;;5.77;100.00
72721;BME280;60835;50.974;10.322;2023-04-25T05:05:38;96670.66;;;5.82;100.00
72721;BME280;60835;50.974;10.322;2023-04-25T05:08:06;96696.91;;;5.82;100.00
72721;BME280;60835;50.974;10.322;2023-04-25T05:10:32;96684.75;;;5.81;100.00
72721;BME280;60835;50.974;10.322;2023-04-25T05:12:59;96700.34;;;5.91;100.00
72721;BME280;60835;50.974;10.322;2023-04-25T05:15:25;96710.69;;;5.92;100.00
72721;BME280;60835;50.974;10.322;2023-04-25T05:17:52;96709.81;;;6.08;100.00
72721;BME280;60835;50.974;10.322;2023-04-25T05:20:18;96727.00;;;6.27;100.00
72721;BME280;60835;50.974;10.322;2023-04-25T05:22:45;96737.66;;;6.17;100.00
72721;BME280;60835;50.974;10.322;2023-04-25T05:25:12;96752.63;;;6.25;100.00
72721;BME280;60835;50.974;10.322;2023-04-25T05:27:38;96798.41;;;6.22;100.00
72721;BME280;60835;50.974;10.322;2023-04-25T05:30:05;96836.28;;;6.36;100.00
72721;BME280;60835;50.974;10.322;2023-04-25T05:32:32;96888.81;;;6.28;100.00
72721;BME280;60835;50.974;10.322;2023-04-25T05:34:58;96909.50;;;6.23;100.00
72721;BME280;60835;50.974;10.322;2023-04-25T05:37:25;96908.19;;;6.35;100.00
72721;BME280;60835;50.974;10.322;2023-04-25T05:39:51;96929.53;;;6.24;100.00
72721;BME280;60835;50.974;10.322;2023-04-25T05:42:18;96936.75;;;6.30;100.00
72721;BME280;60835;50.974;10.322;2023-04-25T05:44:44;96942.66;;;6.24;100.00
72721;BME280;60835;50.974;10.322;2023-04-25T05:47:11;96944.31;;;6.25;100.00
72721;BME280;60835;50.974;10.322;2023-04-25T05:49:37;96955.78;;;6.48;100.00
72721;BME280;60835;50.974;10.322;2023-04-25T05:52:04;96977.78;;;6.31;100.00
72721;BME280;60835;50.974;10.322;2023-04-25T05:54:30;96945.94;;;6.42;100.00
72721;BME280;60835;50.974;10.322;2023-04-25T05:56:57;97001.09;;;6.50;100.00
72721;BME280;60835;50.974;10.322;2023-04-25T05:59:24;97061.53;;;6.58;100.00
72721;BME280;60835;50.974;10.322;2023-04-25T06:01:50;97039.22;;;6.54;100.00
72721;BME280;60835;50.974;10.322;2023-04-25T06:04:17;97059.53;;;6.44;100.00
72721;BME280;60835;50.974;10.322;2023-04-25T06:06:44;97067.59;;;6.42;100.00
72721;BME280;60835;50.974;10.322;2023-04-25T06:09:12;97077.13;;;6.59;100.00
72721;BME280;60835;50.974;10.322;2023-04-25T06:11:39;97094.38;;;6.46;100.00
72721;BME280;60835;50.974;10.322;2023-04-25T06:14:06;97113.13;;;6.59;100.00
72721;BME280;60835;50.974;10.322;2023-04-25T06:16:33;97157.47;;;6.78;100.00
72721;BME280;60835;50.974;10.322;2023-04-25T06:19:00;97206.63;;;6.86;100.00
72721;BME280;60835;50.974;10.322;2023-04-25T06:21:26;97195.28;;;6.85;100.00
72721;BME280;60835;50.974;10.322;2023-04-25T06:23:53;97227.66;;;6.86;100.00
72721;BME280;60835;50.974;10.322;2023-04-25T06:26:19;97254.06;;;6.76;100.00
72721;BME280;60835;50.974;10.322;2023-04-25T06:28:46;97248.88;;;7.00;100.00
72721;BME280;60835;50.974;10.322;2023-04-25T06:31:12;97305.06;;;6.99;100.00
72721;BME280;60835;50.974;10.322;2023-04-25T06:33:39;97322.72;;;6.73;100.00
72721;BME280;60835;50.974;10.322;2023-04-25T06:36:06;97316.38;;;6.92;100.00
72721;BME280;60835;50.974;10.322;2023-04-25T06:38:32;97323.94;;;6.87;100.00
72721;BME280;60835;50.974;10.322;2023-04-25T06:40:59;97350.44;;;6.93;100.00
72721;BME280;60835;50.974;10.322;2023-04-25T06:43:25;97367.75;;;6.78;100.00
72721;BME280;60835;50.974;10.322;2023-04-25T06:45:52;97365.91;;;7.04;100.00
72721;BME280;60835;50.974;10.322;2023-04-25T06:48:20;97353.50;;;7.22;100.00
72721;BME280;60835;50.974;10.322;2023-04-25T06:50:47;97385.09;;;7.30;100.00
72721;BME280;60835;50.974;10.322;2023-04-25T06:53:13;97407.50;;;7.51;100.00
72721;BME280;60835;50.974;10.322;2023-04-25T06:55:40;97438.56;;;7.47;100.00
72721;BME280;60835;50.974;10.322;2023-04-25T06:58:06;97442.97;;;7.30;100.00
72721;BME280;60835;50.974;10.322;2023-04-25T07:00:33;97446.31;;;7.49;100.00
72721;BME280;60835;50.974;10.322;2023-04-25T07:03:00;97442.75;;;7.66;100.00
72721;BME280;60835;50.974;10.322;2023-04-25T07:05:27;97478.81;;;7.73;100.00
72721;BME280;60835;50.974;10.322;2023-04-25T07:07:53;97494.75;;;7.64;100.00
72721;BME280;60835;50.974;10.322;2023-04-25T07:10:19;97504.66;;;7.78;100.00
72721;BME280;60835;50.974;10.322;2023-04-25T07:12:47;97488.56;;;7.81;100.00
72721;BME280;60835;50.974;10.322;2023-04-25T07:15:14;97535.53;;;7.68;100.00
72721;BME280;60835;50.974;10.322;2023-04-25T07:17:40;97525.03;;;7.76;100.00
72721;BME280;60835;50.974;10.322;2023-04-25T07:20:07;97511.50;;;7.63;100.00
72721;BME280;60835;50.974;10.322;2023-04-25T07:22:35;97507.91;;;7.64;100.00
72721;BME280;60835;50.974;10.322;2023-04-25T07:25:02;97502.72;;;7.88;100.00
72721;BME280;60835;50.974;10.322;2023-04-25T07:27:30;97525.59;;;7.46;100.00
72721;BME280;60835;50.974;10.322;2023-04-25T07:29:57;97449.84;;;7.31;100.00
72721;BME280;60835;50.974;10.322;2023-04-25T07:32:24;97409.50;;;7.49;100.00
72721;BME280;60835;50.974;10.322;2023-04-25T07:34:51;97395.91;;;7.77;100.00
72721;BME280;60835;50.974;10.322;2023-04-25T07:37:18;97457.22;;;7.62;100.00
72721;BME280;60835;50.974;10.322;2023-04-25T07:39:45;97408.72;;;7.72;100.00
72721;BME280;60835;50.974;10.322;2023-04-25T07:42:14;97356.22;;;7.79;100.00
72721;BME280;60835;50.974;10.322;2023-04-25T07:44:41;97287.47;;;7.90;100.00
72721;BME280;60835;50.974;10.322;2023-04-25T07:47:08;97210.66;;;7.62;100.00
72721;BME280;60835;50.974;10.322;2023-04-25T07:49:36;97076.03;;;7.73;100.00
72721;BME280;60835;50.974;10.322;2023-04-25T07:52:03;96993.13;;;7.77;100.00
72721;BME280;60835;50.974;10.322;2023-04-25T07:54:30;96906.19;;;7.85;100.00
72721;BME280;60835;50.974;10.322;2023-04-25T07:56:57;96840.31;;;7.71;100.00
72721;BME280;60835;50.974;10.322;2023-04-25T07:59:23;96794.78;;;7.85;100.00
72721;BME280;60835;50.974;10.322;2023-04-25T08:01:50;96784.13;;;8.01;100.00
72721;BME280;60835;50.974;10.322;2023-04-25T08:04:16;96788.94;;;7.97;100.00
72721;BME280;60835;50.974;10.322;2023-04-25T08:06:43;96773.16;;;8.12;100.00
72721;BME280;60835;50.974;10.322;2023-04-25T08:09:10;96750.53;;;8.03;100.00
72721;BME280;60835;50.974;10.322;2023-04-25T08:11:37;96720.56;;;8.04;100.00
72721;BME280;60835;50.974;10.322;2023-04-25T08:14:05;96714.16;;;7.84;100.00
72721;BME280;60835;50.974;10.322;2023-04-25T08:16:31;96714.09;;;7.77;100.00
72721;BME280;60835;50.974;10.322;2023-04-25T08:18:59;96710.81;;;7.75;100.00
72721;BME280;60835;50.974;10.322;2023-04-25T08:21:25;96721.78;;;7.79;100.00
72721;BME280;60835;50.974;10.322;2023-04-25T08:23:53;96712.41;;;7.99;100.00
72721;BME280;60835;50.974;10.322;2023-04-25T08:26:20;96740.69;;;7.82;100.00
72721;BME280;60835;50.974;10.322;2023-04-25T08:28:46;96747.69;;;7.90;100.00
72721;BME280;60835;50.974;10.322;2023-04-25T08:31:14;96738.38;;;8.02;100.00
72721;BME280;60835;50.974;10.322;2023-04-25T08:33:41;96738.56;;;8.15;100.00
72721;BME280;60835;50.974;10.322;2023-04-25T08:36:07;96761.41;;;8.00;100.00
72721;BME280;60835;50.974;10.322;2023-04-25T08:38:34;96769.28;;;7.85;100.00
72721;BME280;60835;50.974;10.322;2023-04-25T08:41:00;96876.50;;;7.69;100.00
72721;BME280;60835;50.974;10.322;2023-04-25T08:43:27;96957.69;;;7.88;100.00
72721;BME280;60835;50.974;10.322;2023-04-25T08:45:55;97028.94;;;8.17;100.00
72721;BME280;60835;50.974;10.322;2023-04-25T08:48:24;97152.84;;;7.85;100.00
72721;BME280;60835;50.974;10.322;2023-04-25T08:50:53;97158.59;;;7.96;100.00
72721;BME280;60835;50.974;10.322;2023-04-25T08:53:21;97206.00;;;7.96;100.00
72721;BME280;60835;50.974;10.322;2023-04-25T08:55:48;97312.63;;;7.92;100.00
72721;BME280;60835;50.974;10.322;2023-04-25T08:58:15;97409.91;;;8.10;100.00
72721;BME280;60835;50.974;10.322;2023-04-25T09:00:42;97428.03;;;8.13;100.00
72721;BME280;60835;50.974;10.322;2023-04-25T09:03:08;97471.16;;;8.04;100.00
72721;BME280;60835;50.974;10.322;2023-04-25T09:05:36;97492.81;;;8.64;100.00
72721;BME280;60835;50.974;10.322;2023-04-25T09:08:04;97621.06;;;8.81;100.00
72721;BME280;60835;50.974;10.322;2023-04-25T09:10:31;97732.03;;;8.96;100.00
72721;BME280;60835;50.974;10.322;2023-04-25T09:13:09;97791.00;;;9.37;100.00
72721;BME280;60835;50.974;10.322;2023-04-25T09:15:52;97926.56;;;9.69;100.00
72721;BME280;60835;50.974;10.322;2023-04-25T09:18:26;98011.06;;;10.11;100.00
72721;BME280;60835;50.974;10.322;2023-04-25T09:20:56;98065.53;;;10.46;100.00
72721;BME280;60835;50.974;10.322;2023-04-25T09:23:27;98127.44;;;10.77;100.00
72721;BME280;60835;50.974;10.322;2023-04-25T09:25:53;98192.09;;;10.33;100.00
72721;BME280;60835;50.974;10.322;2023-04-25T09:28:23;98186.81;;;10.75;100.00
72721;BME280;60835;50.974;10.322;2023-04-25T09:30:55;98239.34;;;12.33;100.00
72721;BME280;60835;50.974;10.322;2023-04-25T09:33:33;98326.81;;;11.60;100.00
72721;BME280;60835;50.974;10.322;2023-04-25T09:36:10;98358.69;;;12.49;100.00
72721;BME280;60835;50.974;10.322;2023-04-25T09:38:40;98405.94;;;12.05;100.00
72721;BME280;60835;50.974;10.322;2023-04-25T09:41:08;98395.16;;;11.90;100.00
72721;BME280;60835;50.974;10.322;2023-04-25T09:43:36;98408.22;;;11.84;100.00
72721;BME280;60835;50.974;10.322;2023-04-25T09:46:03;98394.25;;;11.24;100.00
72721;BME280;60835;50.974;10.322;2023-04-25T09:48:33;98418.19;;;11.90;100.00
72721;BME280;60835;50.974;10.322;2023-04-25T09:51:10;98442.47;;;14.08;100.00
72721;BME280;60835;50.974;10.322;2023-04-25T09:53:38;98462.41;;;11.89;100.00
72721;BME280;60835;50.974;10.322;2023-04-25T09:56:05;98466.97;;;12.45;100.00
72721;BME280;60835;50.974;10.322;2023-04-25T09:58:35;98478.59;;;12.44;100.00
72721;BME280;60835;50.974;10.322;2023-04-25T10:01:06;98487.50;;;13.79;100.00
72721;BME280;60835;50.974;10.322;2023-04-25T10:03:34;98481.50;;;13.77;100.00
72721;BME280;60835;50.974;10.322;2023-04-25T10:06:02;98495.94;;;14.21;100.00
72721;BME280;60835;50.974;10.322;2023-04-25T10:08:32;98493.56;;;15.46;100.00
72721;BME280;60835;50.974;10.322;2023-04-25T10:11:03;98513.84;;;13.58;100.00
72721;BME280;60835;50.974;10.322;2023-04-25T10:13:32;98508.28;;;13.28;100.00
72721;BME280;60835;50.974;10.322;2023-04-25T10:16:00;98509.28;;;12.63;100.00
72721;BME280;60835;50.974;10.322;2023-04-25T10:18:28;98506.56;;;12.14;100.00
72721;BME280;60835;50.974;10.322;2023-04-25T10:20:55;98502.47;;;11.70;100.00
72721;BME280;60835;50.974;10.322;2023-04-25T10:23:22;98510.88;;;11.40;100.00
72721;BME280;60835;50.974;10.322;2023-04-25T10:25:50;98504.25;;;11.10;100.00
72721;BME280;60835;50.974;10.322;2023-04-25T10:28:17;98503.81;;;10.71;100.00
72721;BME280;60835;50.974;10.322;2023-04-25T10:31:03;98514.47;;;10.79;100.00
72721;BME280;60835;50.974;10.322;2023-04-25T10:36:13;98518.00;;;10.70;100.00
72721;BME280;60835;50.974;10.322;2023-04-25T10:38:41;98536.44;;;10.97;100.00
72721;BME280;60835;50.974;10.322;2023-04-25T10:41:09;98531.66;;;11.27;100.00
72721;BME280;60835;50.974;10.322;2023-04-25T10:43:38;98536.59;;;11.81;100.00
72721;BME280;60835;50.974;10.322;2023-04-25T10:48:50;98551.59;;;11.98;100.00
72721;BME280;60835;50.974;10.322;2023-04-25T10:53:44;98561.13;;;12.17;100.00
72721;BME280;60835;50.974;10.322;2023-04-25T10:58:45;98565.22;;;11.70;100.00
72721;BME280;60835;50.974;10.322;2023-04-25T11:01:21;98568.28;;;11.65;100.00
72721;BME280;60835;50.974;10.322;2023-04-25T11:03:48;98556.25;;;11.96;100.00
72721;BME280;60835;50.974;10.322;2023-04-25T11:06:23;98556.06;;;11.98;100.00
72721;BME280;60835;50.974;10.322;2023-04-25T11:08:54;98552.06;;;12.52;100.00
72721;BME280;60835;50.974;10.322;2023-04-25T11:11:22;98551.09;;;12.93;100.00
72721;BME280;60835;50.974;10.322;2023-04-25T11:13:48;98551.38;;;12.42;100.00
72721;BME280;60835;50.974;10.322;2023-04-25T11:16:16;98566.44;;;12.25;100.00
72721;BME280;60835;50.974;10.322;2023-04-25T11:18:53;98557.66;;;12.33;100.00
72721;BME280;60835;50.974;10.322;2023-04-25T11:21:19;98560.66;;;12.38;100.00
72721;BME280;60835;50.974;10.322;2023-04-25T11:23:46;98561.88;;;12.01;100.00
72721;BME280;60835;50.974;10.322;2023-04-25T11:26:13;98568.81;;;12.36;100.00
72721;BME280;60835;50.974;10.322;2023-04-25T11:28:40;98590.59;;;11.72;100.00
72721;BME280;60835;50.974;10.322;2023-04-25T11:31:11;98580.16;;;11.53;100.00
72721;BME280;60835;50.974;10.322;2023-04-25T11:33:37;98583.25;;;11.23;100.00
72721;BME280;60835;50.974;10.322;2023-04-25T11:36:04;98596.34;;;10.98;100.00
72721;BME280;60835;50.974;10.322;2023-04-25T11:38:31;98589.81;;;11.11;100.00
72721;BME280;60835;50.974;10.322;2023-04-25T11:40:57;98602.63;;;10.80;100.00
72721;BME280;60835;50.974;10.322;2023-04-25T11:43:25;98606.53;;;10.93;100.00
72721;BME280;60835;50.974;10.322;2023-04-25T11:45:51;98607.72;;;10.46;100.00
72721;BME280;60835;50.974;10.322;2023-04-25T11:48:19;98608.72;;;10.80;100.00
72721;BME280;60835;50.974;10.322;2023-04-25T11:50:51;98615.44;;;10.39;100.00
72721;BME280;60835;50.974;10.322;2023-04-25T11:53:18;98616.00;;;10.78;100.00
72721;BME280;60835;50.974;10.322;2023-04-25T11:55:44;98600.56;;;10.74;100.00
72721;BME280;60835;50.974;10.322;2023-04-25T11:58:11;98620.59;;;10.94;100.00
72721;BME280;60835;50.974;10.322;2023-04-25T12:00:41;98624.78;;;11.14;100.00
72721;BME280;60835;50.974;10.322;2023-04-25T12:03:15;98623.50;;;11.00;100.00
72721;BME280;60835;50.974;10.322;2023-04-25T12:05:44;98621.91;;;11.33;100.00
72721;BME280;60835;50.974;10.322;2023-04-25T12:08:12;98616.16;;;10.94;100.00
72721;BME280;60835;50.974;10.322;2023-04-25T12:10:39;98612.22;;;10.98;100.00
72721;BME280;60835;50.974;10.322;2023-04-25T12:13:27;98627.72;;;11.11;100.00
72721;BME280;60835;50.974;10.322;2023-04-25T12:15:54;98627.00;;;11.27;100.00
72721;BME280;60835;50.974;10.322;2023-04-25T12:18:24;98630.72;;;11.16;100.00
72721;BME280;60835;50.974;10.322;2023-04-25T12:20:54;98630.13;;;13.56;100.00
72721;BME280;60835;50.974;10.322;2023-04-25T12:23:27;98619.78;;;15.16;100.00
72721;BME280;60835;50.974;10.322;2023-04-25T12:25:56;98619.09;;;15.37;100.00
72721;BME280;60835;50.974;10.322;2023-04-25T12:28:23;98630.03;;;13.96;100.00
72721;BME280;60835;50.974;10.322;2023-04-25T12:30:54;98630.09;;;12.83;100.00
72721;BME280;60835;50.974;10.322;2023-04-25T12:33:21;98636.41;;;13.06;100.00
72721;BME280;60835;50.974;10.322;2023-04-25T12:35:48;98640.03;;;12.73;100.00
72721;BME280;60835;50.974;10.322;2023-04-25T12:38:27;98648.94;;;11.80;100.00
72721;BME280;60835;50.974;10.322;2023-04-25T12:40:55;98650.41;;;11.57;100.00
72721;BME280;60835;50.974;10.322;2023-04-25T12:43:22;98653.34;;;11.97;100.00
72721;BME280;60835;50.974;10.322;2023-04-25T12:45:49;98644.00;;;11.85;100.00
72721;BME280;60835;50.974;10.322;2023-04-25T12:48:17;98654.03;;;11.74;100.00
72721;BME280;60835;50.974;10.322;2023-04-25T12:50:44;98662.63;;;11.50;100.00
72721;BME280;60835;50.974;10.322;2023-04-25T12:53:11;98655.00;;;11.98;100.00
72721;BME280;60835;50.974;10.322;2023-04-25T12:55:37;98659.56;;;12.14;100.00
72721;BME280;60835;50.974;10.322;2023-04-25T12:58:04;98656.78;;;11.90;100.00
72721;BME280;60835;50.974;10.322;2023-04-25T13:00:30;98654.84;;;12.34;100.00